Portada
METAR-TAF:

METAR-TAF

Aeroports :

Pittsburgh International Airport

Pittsburgh, Pennsilvània, Estats Units d'Amèrica

latitud: 40-30-14N, longitud: 080-15-59W, altitud: 366 m

Observació

L'informe es va fer fa 1 hora i 5 minuts, a les 03:51 UTC
Vent calma
Temperatura 19°C
Humitat 83%
Pressió 1023 hPa
Visibilitat: 16.1 km
Cel clar

METAR: KPIT 210351Z 00000KT 10SM CLR 19/16 A3021 RMK AO2 SLP231 T01940156

Hora: 00:56 (04:56 UTC)

Pronòstic

L'informe es va fer fa 1 hora i 46 minuts, a les 03:10 UTC
Pronòstic vàlid del 21 a les 03 UTC al 22 a les 06 UTC
Vent 2 kt amb direcció variable
Visibilitat: 10 km
Escasses núvols a una alçada de 25000 ft
A partir de les 21 a les 1100 UTC
Vent 3 kt del Sud/Sud-Oest
Visibilitat: 10 km
Cel ennuvolat a una alçada de 1500 ft
A partir de les 21 a les 1500 UTC
Vent 5 kt del Sud-Oest
Visibilitat: 10 km
Núvols disperses a una alçada de 4000 ft

TAF: KPIT 210310Z 2103/2206 VRB02KT P6SM FEW250 FM211100 20003KT P6SM BKN015 FM211500 22005KT P6SM SCT040

Observacions i pronòstics meteorològics de més de 4000 aeroports (METAR i TAF).

Les estacions disponibles són els punts grocs i vermells al mapa.

Posi el ratolí al punt desitjat per veure el nom de l'estació.

Feu clic per veure les observacions i els pronòstics meteorològics.

Per canviar el mapa: feu clic els botons verds amb una creu de color negre per apropar; al botó verd amb un guió per allunyar la imatge; o en les fletxes verdes per a mapes adjacents.


METAR-TAF: